PWSweather.com
Personal Weather Stations
Station Observations
KTXDECATUR
Wildwood, Decatur, TX 76234

WildwoodDecatur, TX 76234

Lat: 33.2634, Lon: -97.6651

Elevation: 800

Station Type: Davis Vantage Pro 2

http://weather.wildwoodnaturist.com

Latest ConditionsUpdated 9:50:10 AM CDT Friday, Oct 31, 2014
Currently Today's Max Today's Min Today's Average
Temperature 55.3°F12.9°C 55.6°F13.1°C 46.1°F7.8°C 49.9°F9.9°C
Dew Point 44.5°F6.9°C 51.8°F11.0°C 40.4°F4.7°C 43.8°F6.6°C
Winds 4.3 mph NNE6.9 kmh NNE 10.1 mph N16.3 kmh N - 2.3 mph 3.7 kmh
Wind Gusts 5.3 mph8.5 kmh 15.0 mph24.1 kmh - -
Humidity 67% 87% 67% 79%
Pressure 30.36 in1028.1 mb 30.36 in1028.1 mb 30.19 in1022.4 mb -
Hour Temp Dew Point Humidity Winds Wind Gusts Pressure Precip Precip Rate Daily Precip Total
09:50 AM 55.3°F12.9°C 44.5°F6.9°C 67% 4.3 mph NNE6.9 kmh NNE 5.3 mph8.5 kmh 30.36 in1028.1 mb 0.00 in0.0 mm 0.00 in/hr0.0 mm/hr 0.00 in0.0 mm
09:45 AM 54.8°F12.7°C 44.0°F6.7°C 67% 10.1 mph N16.3 kmh N 12.8 mph20.6 kmh 30.36 in1028.1 mb 0.00 in0.0 mm 0.00 in/hr0.0 mm/hr 0.00 in0.0 mm
09:40 AM 54.6°F12.6°C 44.2°F6.8°C 68% 7.4 mph N11.9 kmh N 11.8 mph19.0 kmh 30.36 in1028.1 mb 0.00 in0.0 mm 0.00 in/hr0.0 mm/hr 0.00 in0.0 mm
09:30 AM 53.9°F12.2°C 43.9°F6.6°C 69% 9.4 mph NNW15.1 kmh NNW 15.0 mph24.1 kmh 30.35 in1027.8 mb 0.00 in0.0 mm 0.00 in/hr0.0 mm/hr 0.00 in0.0 mm
09:20 AM 52.2°F11.2°C 44.5°F6.9°C 75% 8.7 mph N14.0 kmh N 13.9 mph22.4 kmh 30.35 in1027.8 mb 0.00 in0.0 mm 0.00 in/hr0.0 mm/hr 0.00 in0.0 mm
09:15 AM 50.9°F10.5°C 44.7°F7.1°C 79% 6.3 mph NNW10.1 kmh NNW 10.7 mph17.2 kmh 30.35 in1027.8 mb 0.00 in0.0 mm 0.00 in/hr0.0 mm/hr 0.00 in0.0 mm
09:10 AM 50.1°F10.1°C 44.1°F6.7°C 80% 1.4 mph NNW2.3 kmh NNW 3.2 mph5.1 kmh 30.35 in1027.8 mb 0.00 in0.0 mm 0.00 in/hr0.0 mm/hr 0.00 in0.0 mm
09:00 AM 49.0°F9.4°C 43.1°F6.2°C 80% Calm Calm 2.1 mph3.4 kmh 30.34 in1027.4 mb 0.00 in0.0 mm 0.00 in/hr0.0 mm/hr 0.00 in0.0 mm
08:50 AM 48.2°F9.0°C 42.3°F5.7°C 80% 0.2 mph NNW0.3 kmh NNW -- 30.34 in1027.4 mb 0.00 in0.0 mm 0.00 in/hr0.0 mm/hr 0.00 in0.0 mm
08:45 AM 47.9°F8.8°C 42.0°F5.6°C 80% 0.5 mph NNW0.8 kmh NNW -- 30.34 in1027.4 mb 0.00 in0.0 mm 0.00 in/hr0.0 mm/hr 0.00 in0.0 mm
08:40 AM 47.6°F8.7°C 41.7°F5.4°C 80% 0.8 mph NNW1.3 kmh NNW -- 30.33 in1027.1 mb 0.00 in0.0 mm 0.00 in/hr0.0 mm/hr 0.00 in0.0 mm
08:30 AM 47.0°F8.3°C 41.2°F5.1°C 80% 2.2 mph NNW3.5 kmh NNW 2.1 mph3.4 kmh 30.33 in1027.1 mb 0.00 in0.0 mm 0.00 in/hr0.0 mm/hr 0.00 in0.0 mm
08:20 AM 46.5°F8.1°C 41.0°F5.0°C 81% 1.9 mph NNW3.1 kmh NNW 3.2 mph5.1 kmh 30.32 in1026.8 mb 0.00 in0.0 mm 0.00 in/hr0.0 mm/hr 0.00 in0.0 mm
08:15 AM 46.2°F7.9°C 40.7°F4.8°C 81% 2.3 mph NNW3.7 kmh NNW 4.3 mph6.9 kmh 30.32 in1026.8 mb 0.00 in0.0 mm 0.00 in/hr0.0 mm/hr 0.00 in0.0 mm
08:10 AM 46.1°F7.8°C 40.6°F4.8°C 81% 1.3 mph N2.1 kmh N 2.1 mph3.4 kmh 30.32 in1026.8 mb 0.00 in0.0 mm 0.00 in/hr0.0 mm/hr 0.00 in0.0 mm
08:00 AM 46.2°F7.9°C 40.4°F4.7°C 80% 1.6 mph N2.6 kmh N 2.1 mph3.4 kmh 30.32 in1026.8 mb 0.00 in0.0 mm 0.00 in/hr0.0 mm/hr 0.00 in0.0 mm
07:50 AM 46.3°F7.9°C 40.5°F4.7°C 80% 2.3 mph N3.7 kmh N 4.3 mph6.9 kmh 30.31 in1026.4 mb 0.00 in0.0 mm 0.00 in/hr0.0 mm/hr 0.00 in0.0 mm
07:45 AM 46.3°F7.9°C 40.5°F4.7°C 80% 2.1 mph N3.4 kmh N 5.3 mph8.5 kmh 30.31 in1026.4 mb 0.00 in0.0 mm 0.00 in/hr0.0 mm/hr 0.00 in0.0 mm
07:40 AM 46.3°F7.9°C 40.5°F4.7°C 80% 2.5 mph 4.0 kmh 3.2 mph5.1 kmh 30.31 in1026.4 mb 0.00 in0.0 mm 0.00 in/hr0.0 mm/hr 0.00 in0.0 mm
07:30 AM 46.5°F8.1°C 40.4°F4.7°C 79% 2.8 mph N4.5 kmh N 4.3 mph6.9 kmh 30.30 in1026.1 mb 0.00 in0.0 mm 0.00 in/hr0.0 mm/hr 0.00 in0.0 mm
07:20 AM 47.0°F8.3°C 40.8°F4.9°C 79% 2.4 mph N3.9 kmh N 3.2 mph5.1 kmh 30.30 in1026.1 mb 0.00 in0.0 mm 0.00 in/hr0.0 mm/hr 0.00 in0.0 mm
07:15 AM 47.2°F8.4°C 40.7°F4.8°C 78% 1.3 mph N2.1 kmh N 4.3 mph6.9 kmh 30.30 in1026.1 mb 0.00 in0.0 mm 0.00 in/hr0.0 mm/hr 0.00 in0.0 mm
07:10 AM 47.4°F8.6°C 40.8°F4.9°C 78% 2.7 mph N4.3 kmh N 3.2 mph5.1 kmh 30.29 in1025.7 mb 0.00 in0.0 mm 0.00 in/hr0.0 mm/hr 0.00 in0.0 mm
07:00 AM 47.6°F8.7°C 41.1°F5.1°C 78% 2.0 mph N3.2 kmh N 3.2 mph5.1 kmh 30.29 in1025.7 mb 0.00 in0.0 mm 0.00 in/hr0.0 mm/hr 0.00 in0.0 mm
06:50 AM 48.0°F8.9°C 41.1°F5.1°C 77% 3.6 mph N5.8 kmh N 6.4 mph10.3 kmh 30.28 in1025.4 mb 0.00 in0.0 mm 0.00 in/hr0.0 mm/hr 0.00 in0.0 mm
06:45 AM 48.1°F8.9°C 41.2°F5.1°C 77% 2.9 mph N4.7 kmh N 5.3 mph8.5 kmh 30.28 in1025.4 mb 0.00 in0.0 mm 0.00 in/hr0.0 mm/hr 0.00 in0.0 mm
06:40 AM 48.2°F9.0°C 41.3°F5.2°C 77% 3.1 mph N5.0 kmh N 5.3 mph8.5 kmh 30.28 in1025.4 mb 0.00 in0.0 mm 0.00 in/hr0.0 mm/hr 0.00 in0.0 mm
06:30 AM 48.4°F9.1°C 41.5°F5.3°C 77% 2.3 mph N3.7 kmh N 4.3 mph6.9 kmh 30.28 in1025.4 mb 0.00 in0.0 mm 0.00 in/hr0.0 mm/hr 0.00 in0.0 mm
06:20 AM 48.6°F9.2°C 41.4°F5.2°C 76% 3.6 mph N5.8 kmh N 4.3 mph6.9 kmh 30.27 in1025.1 mb 0.00 in0.0 mm 0.00 in/hr0.0 mm/hr 0.00 in0.0 mm
06:15 AM 48.8°F9.3°C 41.6°F5.3°C 76% 4.3 mph N6.9 kmh N 5.3 mph8.5 kmh 30.27 in1025.1 mb 0.00 in0.0 mm 0.00 in/hr0.0 mm/hr 0.00 in0.0 mm
06:10 AM 48.9°F9.4°C 41.7°F5.4°C 76% 4.6 mph N7.4 kmh N 4.3 mph6.9 kmh 30.27 in1025.1 mb 0.00 in0.0 mm 0.00 in/hr0.0 mm/hr 0.00 in0.0 mm
06:00 AM 49.2°F9.6°C 42.0°F5.6°C 76% 3.0 mph N4.8 kmh N 4.3 mph6.9 kmh 30.26 in1024.7 mb 0.00 in0.0 mm 0.00 in/hr0.0 mm/hr 0.00 in0.0 mm
05:50 AM 49.3°F9.6°C 42.1°F5.6°C 76% 3.4 mph N5.5 kmh N 4.3 mph6.9 kmh 30.25 in1024.4 mb 0.00 in0.0 mm 0.00 in/hr0.0 mm/hr 0.00 in0.0 mm
05:45 AM 49.4°F9.7°C 42.1°F5.6°C 76% 3.3 mph N5.3 kmh N 4.3 mph6.9 kmh 30.26 in1024.7 mb 0.00 in0.0 mm 0.00 in/hr0.0 mm/hr 0.00 in0.0 mm
05:40 AM 49.5°F9.7°C 41.9°F5.5°C 75% 2.8 mph N4.5 kmh N 5.3 mph8.5 kmh 30.25 in1024.4 mb 0.00 in0.0 mm 0.00 in/hr0.0 mm/hr 0.00 in0.0 mm
05:30 AM 50.0°F10.0°C 42.4°F5.8°C 75% 4.2 mph N6.8 kmh N 5.3 mph8.5 kmh 30.25 in1024.4 mb 0.00 in0.0 mm 0.00 in/hr0.0 mm/hr 0.00 in0.0 mm
05:20 AM 50.2°F10.1°C 42.6°F5.9°C 75% 3.5 mph N5.6 kmh N 4.3 mph6.9 kmh 30.25 in1024.4 mb 0.00 in0.0 mm 0.00 in/hr0.0 mm/hr 0.00 in0.0 mm
05:15 AM 50.0°F10.0°C 42.7°F5.9°C 76% 4.3 mph N6.9 kmh N 5.3 mph8.5 kmh 30.24 in1024.0 mb 0.00 in0.0 mm 0.00 in/hr0.0 mm/hr 0.00 in0.0 mm
05:10 AM 49.7°F9.8°C 42.7°F5.9°C 77% 4.5 mph N7.2 kmh N 7.5 mph12.1 kmh 30.24 in1024.0 mb 0.00 in0.0 mm 0.00 in/hr0.0 mm/hr 0.00 in0.0 mm
05:00 AM 48.8°F9.3°C 42.9°F6.1°C 80% 3.1 mph N5.0 kmh N 6.4 mph10.3 kmh 30.24 in1024.0 mb 0.00 in0.0 mm 0.00 in/hr0.0 mm/hr 0.00 in0.0 mm
04:50 AM 47.8°F8.8°C 42.6°F5.9°C 82% 3.3 mph N5.3 kmh N 4.3 mph6.9 kmh 30.23 in1023.7 mb 0.00 in0.0 mm 0.00 in/hr0.0 mm/hr 0.00 in0.0 mm
04:45 AM 47.3°F8.5°C 42.4°F5.8°C 83% 4.5 mph N7.2 kmh N 6.4 mph10.3 kmh 30.24 in1024.0 mb 0.00 in0.0 mm 0.00 in/hr0.0 mm/hr 0.00 in0.0 mm
04:40 AM 47.2°F8.4°C 42.3°F5.7°C 83% 3.9 mph N6.3 kmh N 4.3 mph6.9 kmh 30.24 in1024.0 mb 0.00 in0.0 mm 0.00 in/hr0.0 mm/hr 0.00 in0.0 mm
04:30 AM 47.4°F8.6°C 42.5°F5.8°C 83% Calm Calm -- 30.24 in1024.0 mb 0.00 in0.0 mm 0.00 in/hr0.0 mm/hr 0.00 in0.0 mm
04:20 AM 47.5°F8.6°C 42.3°F5.7°C 82% Calm Calm -- 30.24 in1024.0 mb 0.00 in0.0 mm 0.00 in/hr0.0 mm/hr 0.00 in0.0 mm
04:15 AM 47.8°F8.8°C 42.6°F5.9°C 82% Calm Calm -- 30.23 in1023.7 mb 0.00 in0.0 mm 0.00 in/hr0.0 mm/hr 0.00 in0.0 mm
04:10 AM 47.9°F8.8°C 42.3°F5.7°C 81% Calm Calm -- 30.23 in1023.7 mb 0.00 in0.0 mm 0.00 in/hr0.0 mm/hr 0.00 in0.0 mm
04:00 AM 48.4°F9.1°C 42.8°F6.0°C 81% Calm Calm -- 30.23 in1023.7 mb 0.00 in0.0 mm 0.00 in/hr0.0 mm/hr 0.00 in0.0 mm
03:50 AM 48.9°F9.4°C 43.0°F6.1°C 80% Calm Calm -- 30.22 in1023.4 mb 0.00 in0.0 mm 0.00 in/hr0.0 mm/hr 0.00 in0.0 mm
03:45 AM 49.0°F9.4°C 43.1°F6.2°C 80% Calm Calm -- 30.23 in1023.7 mb 0.00 in0.0 mm 0.00 in/hr0.0 mm/hr 0.00 in0.0 mm
03:40 AM 49.2°F9.6°C 43.3°F6.3°C 80% Calm Calm -- 30.22 in1023.4 mb 0.00 in0.0 mm 0.00 in/hr0.0 mm/hr 0.00 in0.0 mm
03:30 AM 49.6°F9.8°C 43.4°F6.3°C 79% 1.0 mph NNW1.6 kmh NNW 2.1 mph3.4 kmh 30.22 in1023.4 mb 0.00 in0.0 mm 0.00 in/hr0.0 mm/hr 0.00 in0.0 mm
03:20 AM 49.9°F9.9°C 43.7°F6.5°C 79% Calm Calm -- 30.22 in1023.4 mb 0.00 in0.0 mm 0.00 in/hr0.0 mm/hr 0.00 in0.0 mm
03:15 AM 50.1°F10.1°C 43.8°F6.6°C 79% 0.5 mph NNW0.8 kmh NNW 2.1 mph3.4 kmh 30.22 in1023.4 mb 0.00 in0.0 mm 0.00 in/hr0.0 mm/hr 0.00 in0.0 mm
03:10 AM 50.2°F10.1°C 43.9°F6.6°C 79% 2.3 mph NNW3.7 kmh NNW 4.3 mph6.9 kmh 30.22 in1023.4 mb 0.00 in0.0 mm 0.00 in/hr0.0 mm/hr 0.00 in0.0 mm
03:00 AM 50.2°F10.1°C 43.9°F6.6°C 79% 2.4 mph NNW3.9 kmh NNW 3.2 mph5.1 kmh 30.21 in1023.0 mb 0.00 in0.0 mm 0.00 in/hr0.0 mm/hr 0.00 in0.0 mm
02:50 AM 50.1°F10.1°C 44.2°F6.8°C 80% 1.4 mph NNW2.3 kmh NNW 2.1 mph3.4 kmh 30.21 in1023.0 mb 0.00 in0.0 mm 0.00 in/hr0.0 mm/hr 0.00 in0.0 mm
02:45 AM 50.1°F10.1°C 44.2°F6.8°C 80% 2.0 mph NNW3.2 kmh NNW 2.1 mph3.4 kmh 30.21 in1023.0 mb 0.00 in0.0 mm 0.00 in/hr0.0 mm/hr 0.00 in0.0 mm
02:40 AM 50.2°F10.1°C 44.3°F6.8°C 80% 1.3 mph NNW2.1 kmh NNW 3.2 mph5.1 kmh 30.21 in1023.0 mb 0.00 in0.0 mm 0.00 in/hr0.0 mm/hr 0.00 in0.0 mm
02:30 AM 50.3°F10.2°C 44.7°F7.1°C 81% 1.4 mph NNW2.3 kmh NNW 2.1 mph3.4 kmh 30.21 in1023.0 mb 0.00 in0.0 mm 0.00 in/hr0.0 mm/hr 0.00 in0.0 mm
02:20 AM 50.7°F10.4°C 44.8°F7.1°C 80% Calm Calm -- 30.21 in1023.0 mb 0.00 in0.0 mm 0.00 in/hr0.0 mm/hr 0.00 in0.0 mm
02:15 AM 50.9°F10.5°C 44.9°F7.2°C 80% Calm Calm -- 30.21 in1023.0 mb 0.00 in0.0 mm 0.00 in/hr0.0 mm/hr 0.00 in0.0 mm
02:10 AM 50.9°F10.5°C 45.3°F7.4°C 81% Calm Calm -- 30.21 in1023.0 mb 0.00 in0.0 mm 0.00 in/hr0.0 mm/hr 0.00 in0.0 mm
02:00 AM 50.9°F10.5°C 45.3°F7.4°C 81% Calm Calm -- 30.21 in1023.0 mb 0.00 in0.0 mm 0.00 in/hr0.0 mm/hr 0.00 in0.0 mm
01:50 AM 51.1°F10.6°C 45.2°F7.3°C 80% Calm Calm -- 30.21 in1023.0 mb 0.00 in0.0 mm 0.00 in/hr0.0 mm/hr 0.00 in0.0 mm
01:45 AM 51.5°F10.8°C 45.5°F7.5°C 80% 1.6 mph NNW2.6 kmh NNW 3.2 mph5.1 kmh 30.21 in1023.0 mb 0.00 in0.0 mm 0.00 in/hr0.0 mm/hr 0.00 in0.0 mm
01:40 AM 51.9°F11.1°C 45.9°F7.7°C 80% 0.3 mph NNW0.5 kmh NNW 2.1 mph3.4 kmh 30.21 in1023.0 mb 0.00 in0.0 mm 0.00 in/hr0.0 mm/hr 0.00 in0.0 mm
01:30 AM 52.4°F11.3°C 46.7°F8.2°C 81% Calm Calm -- 30.21 in1023.0 mb 0.00 in0.0 mm 0.00 in/hr0.0 mm/hr 0.00 in0.0 mm
01:20 AM 52.7°F11.5°C 47.0°F8.3°C 81% Calm Calm -- 30.21 in1023.0 mb 0.00 in0.0 mm 0.00 in/hr0.0 mm/hr 0.00 in0.0 mm
01:15 AM 52.9°F11.6°C 47.6°F8.7°C 82% 2.6 mph NNW4.2 kmh NNW 3.2 mph5.1 kmh 30.20 in1022.7 mb 0.00 in0.0 mm 0.00 in/hr0.0 mm/hr 0.00 in0.0 mm
01:10 AM 53.1°F11.7°C 47.8°F8.8°C 82% 2.7 mph NNW4.3 kmh NNW 3.2 mph5.1 kmh 30.20 in1022.7 mb 0.00 in0.0 mm 0.00 in/hr0.0 mm/hr 0.00 in0.0 mm
01:00 AM 53.4°F11.9°C 48.4°F9.1°C 83% 2.4 mph NNW3.9 kmh NNW 3.2 mph5.1 kmh 30.20 in1022.7 mb 0.00 in0.0 mm 0.00 in/hr0.0 mm/hr 0.00 in0.0 mm
12:50 AM 53.5°F11.9°C 48.8°F9.3°C 84% 3.6 mph N5.8 kmh N 4.3 mph6.9 kmh 30.20 in1022.7 mb 0.00 in0.0 mm 0.00 in/hr0.0 mm/hr 0.00 in0.0 mm
12:45 AM 53.6°F12.0°C 49.2°F9.6°C 85% 3.2 mph N5.1 kmh N 4.3 mph6.9 kmh 30.20 in1022.7 mb 0.00 in0.0 mm 0.00 in/hr0.0 mm/hr 0.00 in0.0 mm
12:40 AM 53.7°F12.1°C 49.3°F9.6°C 85% 3.0 mph NE4.8 kmh NE 3.2 mph5.1 kmh 30.20 in1022.7 mb 0.00 in0.0 mm 0.00 in/hr0.0 mm/hr 0.00 in0.0 mm
12:30 AM 54.0°F12.2°C 49.9°F9.9°C 86% 2.4 mph NE3.9 kmh NE 3.2 mph5.1 kmh 30.20 in1022.7 mb 0.00 in0.0 mm 0.00 in/hr0.0 mm/hr 0.00 in0.0 mm
12:20 AM 54.6°F12.6°C 50.5°F10.3°C 86% 1.9 mph NE3.1 kmh NE 3.2 mph5.1 kmh 30.19 in1022.4 mb 0.00 in0.0 mm 0.00 in/hr0.0 mm/hr 0.00 in0.0 mm
12:15 AM 54.9°F12.7°C 51.1°F10.6°C 87% 2.2 mph NE3.5 kmh NE 2.1 mph3.4 kmh 30.19 in1022.4 mb 0.00 in0.0 mm 0.00 in/hr0.0 mm/hr 0.00 in0.0 mm
12:10 AM 55.1°F12.8°C 51.3°F10.7°C 87% 1.9 mph NE3.1 kmh NE 2.1 mph3.4 kmh 30.19 in1022.4 mb 0.00 in0.0 mm 0.00 in/hr0.0 mm/hr 0.00 in0.0 mm
12:00 AM 55.6°F13.1°C 51.8°F11.0°C 87% 0.3 mph NE0.5 kmh NE -- 30.19 in1022.4 mb 0.00 in0.0 mm 0.00 in/hr0.0 mm/hr 0.00 in0.0 mm